createdAt,value
2018-11-27T00:01:06.046Z,99488.00
2018-11-27T00:03:40.567Z,99487.00
2018-11-27T00:06:10.602Z,99492.00
2018-11-27T00:08:40.116Z,99486.00
2018-11-27T00:11:09.435Z,99483.00
2018-11-27T00:13:39.490Z,99483.00
2018-11-27T00:16:08.888Z,99480.00
2018-11-27T00:18:38.402Z,99486.00
2018-11-27T00:21:07.866Z,99483.00
2018-11-27T00:23:37.283Z,99484.00
2018-11-27T00:26:06.857Z,99487.00
2018-11-27T00:28:36.455Z,99487.00
2018-11-27T00:31:06.615Z,99490.00
2018-11-27T00:33:36.880Z,99502.00
2018-11-27T00:36:06.693Z,99505.00
2018-11-27T00:38:36.193Z,99507.00
2018-11-27T00:41:05.803Z,99509.00
2018-11-27T00:43:35.310Z,99515.00
2018-11-27T00:46:04.835Z,99518.00
2018-11-27T00:48:34.347Z,99516.00
2018-11-27T00:51:03.802Z,99518.00
2018-11-27T00:53:33.246Z,99523.00
2018-11-27T00:56:02.729Z,99516.00
2018-11-27T00:58:32.131Z,99524.00
2018-11-27T01:01:01.561Z,99532.00
2018-11-27T01:03:31.048Z,99526.00
2018-11-27T01:06:00.590Z,99528.00
2018-11-27T01:08:30.818Z,99539.00
2018-11-27T01:11:00.295Z,99533.00
2018-11-27T01:13:29.806Z,99535.00
2018-11-27T01:15:59.160Z,99544.00
2018-11-27T01:18:28.539Z,99545.00
2018-11-27T01:20:57.923Z,99544.00
2018-11-27T01:23:27.383Z,99552.00
2018-11-27T01:25:56.944Z,99550.00
2018-11-27T01:28:26.883Z,99544.00
2018-11-27T01:30:56.336Z,99553.00
2018-11-27T01:33:25.731Z,99554.00
2018-11-27T01:35:55.986Z,99555.00
2018-11-27T01:38:26.091Z,99549.00
2018-11-27T01:40:55.656Z,99561.00
2018-11-27T01:43:25.153Z,99560.00
2018-11-27T01:45:54.623Z,99553.00
2018-11-27T01:48:24.904Z,99560.00
2018-11-27T01:50:54.462Z,99562.00
2018-11-27T01:53:24.783Z,99567.00
2018-11-27T01:55:54.385Z,99566.00
2018-11-27T01:58:23.830Z,99561.00
2018-11-27T02:00:53.369Z,99553.00
2018-11-27T02:03:22.811Z,99552.00
2018-11-27T02:05:52.248Z,99554.00
2018-11-27T02:08:21.651Z,99561.00
2018-11-27T02:10:51.218Z,99560.00
2018-11-27T02:13:20.679Z,99551.00
2018-11-27T02:15:50.177Z,99570.00
2018-11-27T02:18:19.577Z,99562.00
2018-11-27T02:20:48.978Z,99567.00
2018-11-27T02:23:18.509Z,99564.00
2018-11-27T02:25:48.050Z,99565.00
2018-11-27T02:28:17.421Z,99557.00
2018-11-27T02:30:46.913Z,99573.00
2018-11-27T02:33:16.327Z,99567.00
2018-11-27T02:35:46.369Z,99574.00
2018-11-27T02:38:15.795Z,99572.00
2018-11-27T02:40:45.232Z,99580.00
2018-11-27T02:43:14.704Z,99581.00
2018-11-27T02:45:44.139Z,99581.00
2018-11-27T02:48:13.670Z,99586.00
2018-11-27T02:50:43.089Z,99591.00
2018-11-27T02:53:12.554Z,99590.00
2018-11-27T02:55:42.594Z,99603.00
2018-11-27T02:58:12.979Z,99601.00
2018-11-27T03:00:42.452Z,99606.00
2018-11-27T03:03:11.793Z,99607.00
2018-11-27T03:05:41.222Z,99606.00
2018-11-27T03:08:10.669Z,99607.00
2018-11-27T03:10:40.315Z,99604.00
2018-11-27T03:13:09.772Z,99614.00
2018-11-27T03:15:39.305Z,99615.00
2018-11-27T03:18:08.900Z,99621.00
2018-11-27T03:20:38.522Z,99618.00
2018-11-27T03:23:08.224Z,99611.00
2018-11-27T03:25:37.647Z,99619.00
2018-11-27T03:28:07.384Z,99621.00
2018-11-27T03:30:36.949Z,99617.00
2018-11-27T03:33:06.573Z,99614.00
2018-11-27T03:35:36.135Z,99615.00
2018-11-27T03:38:05.740Z,99619.00
2018-11-27T03:40:35.499Z,99607.00
2018-11-27T03:43:05.222Z,99614.00
2018-11-27T03:45:34.689Z,99616.00
2018-11-27T03:48:04.265Z,99619.00
2018-11-27T03:50:34.355Z,99627.00
2018-11-27T03:53:04.466Z,99621.00
2018-11-27T03:55:33.936Z,99630.00
2018-11-27T03:58:03.457Z,99629.00
2018-11-27T04:00:32.840Z,99632.00
2018-11-27T04:03:07.959Z,99640.00
2018-11-27T04:05:38.009Z,99632.00
2018-11-27T04:08:09.303Z,99632.00
2018-11-27T04:10:40.223Z,99639.00
2018-11-27T04:13:09.718Z,99636.00
2018-11-27T04:15:39.305Z,99642.00
2018-11-27T04:18:08.997Z,99643.00
2018-11-27T04:20:38.460Z,99640.00
2018-11-27T04:23:08.167Z,99647.00
2018-11-27T04:25:37.565Z,99646.00
2018-11-27T04:28:08.239Z,99638.00
2018-11-27T04:30:37.630Z,99650.00
2018-11-27T04:33:07.427Z,99644.00
2018-11-27T04:35:36.900Z,99647.00
2018-11-27T04:38:06.949Z,99652.00
2018-11-27T04:40:36.464Z,99656.00
2018-11-27T04:43:06.392Z,99656.00
2018-11-27T04:45:35.867Z,99656.00
2018-11-27T04:48:05.448Z,99663.00
2018-11-27T04:50:34.935Z,99654.00
2018-11-27T04:53:04.559Z,99665.00
2018-11-27T04:55:34.009Z,99656.00
2018-11-27T04:58:03.626Z,99671.00
2018-11-27T05:00:34.124Z,99664.00
2018-11-27T05:03:03.579Z,99668.00
2018-11-27T05:05:33.113Z,99665.00
2018-11-27T05:08:02.637Z,99664.00
2018-11-27T05:10:32.186Z,99665.00
2018-11-27T05:13:01.743Z,99669.00
2018-11-27T05:15:31.178Z,99679.00
2018-11-27T05:18:00.743Z,99676.00
2018-11-27T05:20:30.144Z,99681.00
2018-11-27T05:22:59.663Z,99685.00
2018-11-27T05:25:29.162Z,99684.00
2018-11-27T05:27:59.828Z,99679.00
2018-11-27T05:30:29.786Z,99684.00
2018-11-27T05:32:59.225Z,99688.00
2018-11-27T05:35:30.162Z,99691.00
2018-11-27T05:38:02.032Z,99689.00
2018-11-27T05:40:31.490Z,99690.00
2018-11-27T05:43:06.770Z,99686.00
2018-11-27T05:45:36.123Z,99697.00
2018-11-27T05:48:06.289Z,99691.00
2018-11-27T05:50:36.589Z,99692.00
2018-11-27T05:53:06.582Z,99694.00
2018-11-27T05:55:36.181Z,99694.00
2018-11-27T05:58:05.924Z,99699.00
2018-11-27T06:00:35.494Z,99692.00
2018-11-27T06:03:07.586Z,99696.00
2018-11-27T06:05:37.414Z,99708.00
2018-11-27T06:08:07.358Z,99721.00
2018-11-27T06:10:36.915Z,99712.00
2018-11-27T06:13:06.433Z,99725.00
2018-11-27T06:15:35.855Z,99709.00
2018-11-27T06:18:06.014Z,99722.00
2018-11-27T06:20:35.385Z,99724.00
2018-11-27T06:23:05.064Z,99740.00
2018-11-27T06:25:41.158Z,99740.00
2018-11-27T06:28:11.100Z,99743.00
2018-11-27T06:30:40.622Z,99747.00
2018-11-27T06:33:10.156Z,99758.00
2018-11-27T06:35:42.628Z,99757.00
2018-11-27T06:38:12.538Z,99771.00
2018-11-27T06:40:44.206Z,99760.00
2018-11-27T06:43:14.202Z,99772.00
2018-11-27T06:45:44.580Z,99771.00
2018-11-27T06:48:15.452Z,99769.00
2018-11-27T06:50:45.009Z,99780.00
2018-11-27T06:53:14.627Z,99784.00
2018-11-27T06:55:44.515Z,99786.00
2018-11-27T06:58:13.981Z,99789.00
2018-11-27T07:00:43.744Z,99794.00
2018-11-27T07:03:14.598Z,99789.00
2018-11-27T07:05:50.535Z,99790.00
2018-11-27T07:08:19.960Z,99800.00
2018-11-27T07:10:49.340Z,99805.00
2018-11-27T07:13:21.943Z,99818.00
2018-11-27T07:15:52.211Z,99808.00
2018-11-27T07:18:21.797Z,99824.00
2018-11-27T07:20:51.217Z,99823.00
2018-11-27T07:23:20.644Z,99832.00
2018-11-27T07:25:50.183Z,99848.00
2018-11-27T07:28:19.538Z,99844.00
2018-11-27T07:30:48.914Z,99844.00
2018-11-27T07:33:18.390Z,99851.00
2018-11-27T07:35:47.708Z,99855.00
2018-11-27T07:38:17.178Z,99868.00
2018-11-27T07:40:46.530Z,99859.00
2018-11-27T07:43:15.817Z,99861.00
2018-11-27T07:45:45.211Z,99866.00
2018-11-27T07:48:14.758Z,99875.00
2018-11-27T07:50:44.208Z,99877.00
2018-11-27T07:53:13.706Z,99870.00
2018-11-27T07:55:43.064Z,99880.00
2018-11-27T07:58:12.419Z,99886.00
2018-11-27T08:00:41.925Z,99891.00
2018-11-27T08:03:11.394Z,99885.00
2018-11-27T08:05:41.932Z,99892.00
2018-11-27T08:08:15.462Z,99893.00
2018-11-27T08:10:46.350Z,99897.00
2018-11-27T08:13:15.814Z,99891.00
2018-11-27T08:15:45.333Z,99897.00
2018-11-27T08:18:14.659Z,99903.00
2018-11-27T08:20:44.717Z,99904.00
2018-11-27T08:23:14.135Z,99906.00
2018-11-27T08:25:43.534Z,99910.00
2018-11-27T08:28:13.177Z,99915.00
2018-11-27T08:30:43.486Z,99926.00
2018-11-27T08:33:11.930Z,99928.00
2018-11-27T08:35:41.829Z,99931.00
2018-11-27T08:38:11.310Z,99928.00
2018-11-27T08:40:40.846Z,99927.00
2018-11-27T08:43:11.452Z,99939.00
2018-11-27T08:45:41.571Z,99942.00
2018-11-27T08:48:10.947Z,99943.00
2018-11-27T08:50:40.312Z,99941.00
2018-11-27T08:53:09.797Z,99946.00
2018-11-27T08:55:42.043Z,99949.00
2018-11-27T08:58:18.911Z,99958.00
2018-11-27T09:00:48.344Z,99958.00
2018-11-27T09:03:17.780Z,99956.00
2018-11-27T09:05:47.447Z,99961.00
2018-11-27T09:08:16.860Z,99960.00
2018-11-27T09:10:46.350Z,99965.00
2018-11-27T09:13:16.481Z,99960.00
2018-11-27T09:15:45.770Z,99969.00
2018-11-27T09:18:20.611Z,99973.00
2018-11-27T09:20:50.014Z,99979.00
2018-11-27T09:23:19.548Z,99970.00
2018-11-27T09:25:49.118Z,99974.00
2018-11-27T09:28:18.549Z,99988.00
2018-11-27T09:30:47.958Z,99983.00
2018-11-27T09:33:17.363Z,99990.00
2018-11-27T09:35:46.834Z,99986.00
2018-11-27T09:38:16.405Z,99983.00
2018-11-27T09:40:45.879Z,99988.00
2018-11-27T09:43:15.958Z,99995.00
2018-11-27T09:45:46.563Z,100002.00
2018-11-27T09:48:16.034Z,99997.00
2018-11-27T09:50:45.552Z,100007.00
2018-11-27T09:53:16.362Z,100012.00
2018-11-27T09:55:45.741Z,100005.00
2018-11-27T09:58:15.130Z,100001.00
2018-11-27T10:00:44.743Z,100009.00
2018-11-27T10:03:15.987Z,100010.00
2018-11-27T10:05:45.391Z,100010.00
2018-11-27T10:08:14.772Z,100012.00
2018-11-27T10:10:44.310Z,100003.00
2018-11-27T10:13:14.006Z,100008.00
2018-11-27T10:15:43.524Z,100007.00
2018-11-27T10:18:12.874Z,100016.00
2018-11-27T10:20:43.281Z,100013.00
2018-11-27T10:23:14.335Z,100016.00
2018-11-27T10:25:43.814Z,100008.00
2018-11-27T10:28:13.522Z,100013.00
2018-11-27T10:30:43.002Z,100025.00
2018-11-27T10:33:13.431Z,100013.00
2018-11-27T10:35:49.116Z,100014.00
2018-11-27T10:38:18.629Z,100001.00
2018-11-27T10:40:48.220Z,100011.00
2018-11-27T10:43:19.899Z,100013.00
2018-11-27T10:45:47.838Z,100012.00
2018-11-27T10:48:17.852Z,100015.00
2018-11-27T10:50:47.407Z,100022.00
2018-11-27T10:53:17.003Z,100028.00
2018-11-27T10:55:46.540Z,100028.00
2018-11-27T10:58:15.945Z,100027.00
2018-11-27T11:00:50.625Z,100025.00
2018-11-27T11:03:50.571Z,100032.00
2018-11-27T11:06:19.976Z,100038.00
2018-11-27T11:08:49.463Z,100034.00
2018-11-27T11:11:19.191Z,100041.00
2018-11-27T11:13:48.700Z,100034.00
2018-11-27T11:16:18.131Z,100039.00
2018-11-27T11:18:47.614Z,100033.00
2018-11-27T11:21:17.082Z,100036.00
2018-11-27T11:23:46.970Z,100040.00
2018-11-27T11:26:16.595Z,100036.00
2018-11-27T11:28:46.163Z,100032.00
2018-11-27T11:31:15.752Z,100043.00
2018-11-27T11:33:45.281Z,100048.00
2018-11-27T11:36:15.256Z,100057.00
2018-11-27T11:38:44.864Z,100057.00
2018-11-27T11:41:14.489Z,100079.00
2018-11-27T11:43:44.043Z,100073.00
2018-11-27T11:46:13.436Z,100073.00
2018-11-27T11:48:42.889Z,100068.00
2018-11-27T11:51:12.263Z,100064.00
2018-11-27T11:53:41.731Z,100067.00
2018-11-27T11:56:11.589Z,100070.00
2018-11-27T11:58:40.972Z,100060.00
2018-11-27T12:01:11.249Z,100074.00
2018-11-27T12:03:40.810Z,100077.00
2018-11-27T12:06:10.219Z,100076.00
2018-11-27T12:08:39.718Z,100082.00
2018-11-27T12:11:09.159Z,100085.00
2018-11-27T12:13:38.535Z,100081.00
2018-11-27T12:16:08.178Z,100081.00
2018-11-27T12:18:37.687Z,100093.00
2018-11-27T12:21:07.191Z,100095.00
2018-11-27T12:23:36.543Z,100092.00
2018-11-27T12:26:06.494Z,100091.00
2018-11-27T12:28:35.876Z,100088.00
2018-11-27T12:31:06.414Z,100084.00
2018-11-27T12:33:36.764Z,100097.00
2018-11-27T12:36:06.893Z,100104.00
2018-11-27T12:38:36.549Z,100108.00
2018-11-27T12:41:10.171Z,100109.00
2018-11-27T12:43:37.485Z,100111.00
2018-11-27T12:46:06.980Z,100110.00
2018-11-27T12:48:36.583Z,100111.00
2018-11-27T12:51:07.137Z,100112.00
2018-11-27T12:53:36.856Z,100114.00
2018-11-27T12:56:06.295Z,100117.00
2018-11-27T12:58:35.734Z,100119.00
2018-11-27T13:01:09.465Z,100126.00
2018-11-27T13:03:34.997Z,100126.00
2018-11-27T13:06:04.412Z,100120.00
2018-11-27T13:08:34.017Z,100133.00
2018-11-27T13:11:04.091Z,100129.00
2018-11-27T13:13:33.547Z,100133.00
2018-11-27T13:16:03.040Z,100133.00
2018-11-27T13:18:32.422Z,100135.00
2018-11-27T13:21:01.876Z,100142.00
2018-11-27T13:23:31.237Z,100136.00
2018-11-27T13:26:00.856Z,100144.00
2018-11-27T13:28:30.294Z,100136.00
2018-11-27T13:31:07.472Z,100149.00
2018-11-27T13:33:59.131Z,100143.00
2018-11-27T13:36:28.733Z,100145.00
2018-11-27T13:39:13.747Z,100155.00
2018-11-27T13:41:43.171Z,100155.00
2018-11-27T13:44:12.720Z,100157.00
2018-11-27T13:46:42.092Z,100161.00
2018-11-27T13:49:11.495Z,100155.00
2018-11-27T13:51:40.813Z,100166.00
2018-11-27T13:54:10.740Z,100165.00
2018-11-27T13:56:40.269Z,100167.00
2018-11-27T13:59:09.624Z,100165.00
2018-11-27T14:01:39.217Z,100166.00
2018-11-27T14:04:08.646Z,100161.00
2018-11-27T14:06:38.248Z,100160.00
2018-11-27T14:09:10.649Z,100168.00
2018-11-27T14:11:40.422Z,100175.00
2018-11-27T14:14:09.831Z,100175.00
2018-11-27T14:16:39.204Z,100186.00
2018-11-27T14:19:08.655Z,100178.00
2018-11-27T14:21:38.101Z,100189.00
2018-11-27T14:24:07.695Z,100182.00
2018-11-27T14:26:37.070Z,100181.00
2018-11-27T14:29:07.134Z,100190.00
2018-11-27T14:31:36.861Z,100187.00
2018-11-27T14:34:06.767Z,100187.00
2018-11-27T14:36:36.850Z,100187.00
2018-11-27T14:39:10.464Z,100186.00
2018-11-27T14:41:40.471Z,100188.00
2018-11-27T14:44:09.890Z,100195.00
2018-11-27T14:46:39.488Z,100196.00
2018-11-27T14:49:08.895Z,100196.00
2018-11-27T14:51:38.488Z,100192.00
2018-11-27T14:54:08.218Z,100186.00
2018-11-27T14:56:37.573Z,100197.00
2018-11-27T14:59:07.246Z,100189.00
2018-11-27T15:01:36.628Z,100201.00
2018-11-27T15:04:06.576Z,100208.00
2018-11-27T15:06:36.062Z,100195.00
2018-11-27T15:09:09.630Z,100194.00
2018-11-27T15:11:39.208Z,100197.00
2018-11-27T15:14:08.577Z,100200.00
2018-11-27T15:16:38.388Z,100206.00
2018-11-27T15:19:07.911Z,100198.00
2018-11-27T15:21:37.350Z,100204.00
2018-11-27T15:24:07.180Z,100208.00
2018-11-27T15:26:36.676Z,100209.00
2018-11-27T15:29:06.327Z,100207.00
2018-11-27T15:31:35.880Z,100220.00
2018-11-27T15:34:05.812Z,100219.00
2018-11-27T15:36:35.202Z,100223.00
2018-11-27T15:39:06.712Z,100224.00
2018-11-27T15:41:36.302Z,100225.00
2018-11-27T15:44:06.505Z,100224.00
2018-11-27T15:46:36.046Z,100228.00
2018-11-27T15:49:05.849Z,100232.00
2018-11-27T15:51:35.417Z,100225.00
2018-11-27T15:54:04.944Z,100228.00
2018-11-27T15:56:34.242Z,100233.00
2018-11-27T15:59:03.644Z,100231.00
2018-11-27T16:01:33.060Z,100239.00
2018-11-27T16:04:02.660Z,100235.00
2018-11-27T16:06:32.247Z,100236.00
2018-11-27T16:09:01.606Z,100236.00
2018-11-27T16:11:31.199Z,100236.00
2018-11-27T16:14:00.654Z,100239.00
2018-11-27T16:16:30.485Z,100245.00
2018-11-27T16:18:59.868Z,100248.00
2018-11-27T16:21:29.369Z,100249.00
2018-11-27T16:23:58.786Z,100251.00
2018-11-27T16:26:28.313Z,100252.00
2018-11-27T16:28:57.801Z,100257.00
2018-11-27T16:31:27.275Z,100274.00
2018-11-27T16:33:56.989Z,100263.00
2018-11-27T16:36:26.624Z,100270.00
2018-11-27T16:38:56.303Z,100265.00
2018-11-27T16:41:25.864Z,100272.00
2018-11-27T16:43:55.275Z,100275.00
2018-11-27T16:46:24.904Z,100276.00
2018-11-27T16:48:54.323Z,100273.00
2018-11-27T16:51:23.735Z,100273.00
2018-11-27T16:53:53.108Z,100275.00
2018-11-27T16:56:22.616Z,100279.00
2018-11-27T16:58:52.160Z,100271.00
2018-11-27T17:01:21.660Z,100276.00
2018-11-27T17:03:51.135Z,100280.00
2018-11-27T17:06:21.262Z,100288.00
2018-11-27T17:08:51.535Z,100295.00
2018-11-27T17:11:20.995Z,100304.00
2018-11-27T17:13:50.498Z,100303.00
2018-11-27T17:16:19.979Z,100295.00
2018-11-27T17:18:49.440Z,100304.00
2018-11-27T17:21:19.193Z,100310.00
2018-11-27T17:23:48.729Z,100315.00
2018-11-27T17:26:18.871Z,100315.00
2018-11-27T17:28:48.272Z,100309.00
2018-11-27T17:31:17.966Z,100320.00
2018-11-27T17:34:09.859Z,100310.00
2018-11-27T17:36:40.595Z,100307.00
2018-11-27T17:39:12.788Z,100311.00
2018-11-27T17:41:42.787Z,100302.00
2018-11-27T17:44:15.175Z,100310.00
2018-11-27T17:46:44.672Z,100309.00
2018-11-27T17:49:14.145Z,100311.00
2018-11-27T17:51:43.583Z,100322.00
2018-11-27T17:54:14.011Z,100330.00
2018-11-27T17:56:44.972Z,100330.00
2018-11-27T17:59:14.587Z,100332.00
2018-11-27T18:01:44.325Z,100336.00
2018-11-27T18:04:14.526Z,100336.00
2018-11-27T18:06:43.961Z,100342.00
2018-11-27T18:09:13.414Z,100340.00
2018-11-27T18:11:42.792Z,100339.00
2018-11-27T18:14:12.385Z,100351.00
2018-11-27T18:16:44.072Z,100342.00
2018-11-27T18:19:13.930Z,100342.00
2018-11-27T18:21:43.557Z,100349.00
2018-11-27T18:24:13.901Z,100343.00
2018-11-27T18:26:43.268Z,100359.00
2018-11-27T18:29:12.779Z,100352.00
2018-11-27T18:31:42.611Z,100356.00
2018-11-27T18:34:12.553Z,100362.00
2018-11-27T18:36:42.801Z,100347.00
2018-11-27T18:39:12.248Z,100363.00
2018-11-27T18:41:41.708Z,100361.00
2018-11-27T18:44:12.032Z,100350.00
2018-11-27T18:46:41.610Z,100360.00
2018-11-27T18:49:11.169Z,100349.00
2018-11-27T18:51:40.636Z,100355.00
2018-11-27T18:54:10.114Z,100356.00
2018-11-27T18:56:39.463Z,100353.00
2018-11-27T18:59:08.921Z,100357.00
2018-11-27T19:01:38.439Z,100359.00
2018-11-27T19:04:07.931Z,100359.00
2018-11-27T19:06:37.433Z,100358.00
2018-11-27T19:09:09.804Z,100359.00
2018-11-27T19:11:39.282Z,100350.00
2018-11-27T19:14:08.819Z,100356.00
2018-11-27T19:16:38.353Z,100362.00
2018-11-27T19:19:08.097Z,100362.00
2018-11-27T19:21:37.744Z,100367.00
2018-11-27T19:24:07.285Z,100382.00
2018-11-27T19:26:36.834Z,100373.00
2018-11-27T19:29:07.255Z,100380.00
2018-11-27T19:31:36.804Z,100378.00
2018-11-27T19:34:06.581Z,100381.00
2018-11-27T19:36:36.170Z,100377.00
2018-11-27T19:39:08.688Z,100379.00
2018-11-27T19:41:38.673Z,100386.00
2018-11-27T19:44:08.285Z,100389.00
2018-11-27T19:46:38.788Z,100395.00
2018-11-27T19:49:09.473Z,100391.00
2018-11-27T19:51:39.299Z,100397.00
2018-11-27T19:54:09.429Z,100400.00
2018-11-27T19:56:39.032Z,100402.00
2018-11-27T19:59:08.840Z,100400.00
2018-11-27T20:01:38.741Z,100400.00
2018-11-27T20:04:08.234Z,100406.00
2018-11-27T20:06:38.665Z,100411.00
2018-11-27T20:09:10.085Z,100420.00
2018-11-27T20:11:39.784Z,100417.00
2018-11-27T20:14:09.309Z,100419.00
2018-11-27T20:16:39.561Z,100434.00
2018-11-27T20:19:08.931Z,100439.00
2018-11-27T20:21:38.399Z,100441.00
2018-11-27T20:24:07.855Z,100434.00
2018-11-27T20:26:37.203Z,100446.00
2018-11-27T20:29:06.574Z,100448.00
2018-11-27T20:31:36.282Z,100447.00
2018-11-27T20:34:06.270Z,100454.00
2018-11-27T20:36:36.257Z,100453.00
2018-11-27T20:39:09.742Z,100461.00
2018-11-27T20:41:39.446Z,100459.00
2018-11-27T20:44:08.834Z,100464.00
2018-11-27T20:46:38.510Z,100468.00
2018-11-27T20:49:07.855Z,100470.00
2018-11-27T20:51:37.441Z,100479.00
2018-11-27T20:54:07.119Z,100486.00
2018-11-27T20:56:36.532Z,100480.00
2018-11-27T20:59:06.063Z,100479.00
2018-11-27T21:01:36.164Z,100480.00
2018-11-27T21:04:05.882Z,100485.00
2018-11-27T21:06:36.194Z,100496.00
2018-11-27T21:09:08.820Z,100481.00
2018-11-27T21:11:38.423Z,100489.00
2018-11-27T21:14:07.901Z,100487.00
2018-11-27T21:16:37.293Z,100490.00
2018-11-27T21:19:07.033Z,100486.00
2018-11-27T21:21:36.563Z,100495.00
2018-11-27T21:24:06.927Z,100486.00
2018-11-27T21:26:36.296Z,100482.00
2018-11-27T21:29:06.483Z,100483.00
2018-11-27T21:31:36.016Z,100480.00
2018-11-27T21:34:05.636Z,100481.00
2018-11-27T21:36:35.097Z,100483.00
2018-11-27T21:39:06.463Z,100480.00
2018-11-27T21:41:36.086Z,100488.00
2018-11-27T21:44:05.800Z,100483.00
2018-11-27T21:46:35.283Z,100488.00
2018-11-27T21:49:04.822Z,100489.00
2018-11-27T21:51:35.144Z,100480.00
2018-11-27T21:54:04.643Z,100486.00
2018-11-27T21:56:35.059Z,100498.00
2018-11-27T21:59:04.498Z,100495.00
2018-11-27T22:01:34.543Z,100495.00
2018-11-27T22:04:03.598Z,100494.00
2018-11-27T22:06:33.186Z,100506.00
2018-11-27T22:09:02.620Z,100519.00
2018-11-27T22:11:32.087Z,100523.00
2018-11-27T22:14:01.528Z,100518.00
2018-11-27T22:16:31.067Z,100521.00
2018-11-27T22:19:00.663Z,100521.00
2018-11-27T22:21:30.347Z,100515.00
2018-11-27T22:23:59.719Z,100522.00
2018-11-27T22:26:29.260Z,100517.00
2018-11-27T22:28:58.627Z,100520.00
2018-11-27T22:31:28.014Z,100520.00
2018-11-27T22:33:57.390Z,100517.00
2018-11-27T22:36:26.778Z,100523.00
2018-11-27T22:38:56.149Z,100519.00
2018-11-27T22:41:25.479Z,100530.00
2018-11-27T22:43:54.947Z,100534.00
2018-11-27T22:46:24.631Z,100534.00
2018-11-27T22:48:54.131Z,100535.00
2018-11-27T22:51:23.539Z,100539.00
2018-11-27T22:53:53.292Z,100539.00
2018-11-27T22:56:22.797Z,100539.00
2018-11-27T22:58:52.775Z,100536.00
2018-11-27T23:01:23.163Z,100530.00
2018-11-27T23:03:52.650Z,100539.00
2018-11-27T23:06:22.165Z,100535.00
2018-11-27T23:08:51.524Z,100545.00
2018-11-27T23:11:21.075Z,100543.00
2018-11-27T23:13:50.413Z,100543.00
2018-11-27T23:16:19.752Z,100550.00
2018-11-27T23:18:49.402Z,100542.00
2018-11-27T23:21:18.836Z,100544.00
2018-11-27T23:23:48.304Z,100542.00
2018-11-27T23:26:17.658Z,100545.00
2018-11-27T23:28:47.123Z,100545.00
2018-11-27T23:31:16.618Z,100537.00
2018-11-27T23:33:46.117Z,100545.00
2018-11-27T23:36:15.629Z,100544.00
2018-11-27T23:38:45.151Z,100545.00
2018-11-27T23:41:14.572Z,100553.00
2018-11-27T23:43:44.049Z,100552.00
2018-11-27T23:46:13.455Z,100544.00
2018-11-27T23:48:42.858Z,100538.00
2018-11-27T23:51:12.512Z,100538.00
2018-11-27T23:53:42.014Z,100539.00
2018-11-27T23:56:11.405Z,100532.00
2018-11-27T23:58:40.903Z,100540.00
